sensor_id;sensor_type;location;lat;lon;timestamp;pressure;altitude;pressure_sealevel;temperature;humidity
5126;BME280;63008;53.112;8.896;2023-11-19T00:01:28;59154.88;;;-140.20;100.00
5126;BME280;63008;53.112;8.896;2023-11-19T00:03:29;59175.81;;;-140.20;100.00
5126;BME280;63008;53.112;8.896;2023-11-19T00:05:30;59175.81;;;-140.20;100.00
5126;BME280;63008;53.112;8.896;2023-11-19T00:07:31;59175.81;;;-140.20;100.00
5126;BME280;63008;53.112;8.896;2023-11-19T00:09:33;59171.63;;;-140.20;100.00
5126;BME280;63008;53.112;8.896;2023-11-19T00:11:34;59159.06;;;-140.20;100.00
5126;BME280;63008;53.112;8.896;2023-11-19T00:13:35;59161.16;;;-140.20;100.00
5126;BME280;63008;53.112;8.896;2023-11-19T00:15:36;59121.44;;;-140.20;100.00
5126;BME280;63008;53.112;8.896;2023-11-19T00:17:41;59167.44;;;-140.20;100.00
5126;BME280;63008;53.112;8.896;2023-11-19T00:19:51;59192.53;;;-140.20;100.00
5126;BME280;63008;53.112;8.896;2023-11-19T00:21:52;59165.34;;;-140.20;100.00
5126;BME280;63008;53.112;8.896;2023-11-19T00:23:53;59159.06;;;-140.20;100.00
5126;BME280;63008;53.112;8.896;2023-11-19T00:25:54;59156.97;;;-140.20;100.00
5126;BME280;63008;53.112;8.896;2023-11-19T00:27:55;59142.34;;;-140.20;100.00
5126;BME280;63008;53.112;8.896;2023-11-19T00:29:57;59161.16;;;-140.20;100.00
5126;BME280;63008;53.112;8.896;2023-11-19T00:31:58;59144.44;;;-140.20;100.00
5126;BME280;63008;53.112;8.896;2023-11-19T00:33:59;59140.25;;;-140.20;100.00
5126;BME280;63008;53.112;8.896;2023-11-19T00:36:00;59171.63;;;-140.20;100.00
5126;BME280;63008;53.112;8.896;2023-11-19T00:38:01;59163.25;;;-140.20;100.00
5126;BME280;63008;53.112;8.896;2023-11-19T00:40:04;59200.88;;;-140.20;100.00
5126;BME280;63008;53.112;8.896;2023-11-19T00:42:06;59131.91;;;-140.20;100.00
5126;BME280;63008;53.112;8.896;2023-11-19T00:44:07;59165.34;;;-140.20;100.00
5126;BME280;63008;53.112;8.896;2023-11-19T00:46:08;59173.72;;;-140.20;100.00
5126;BME280;63008;53.112;8.896;2023-11-19T00:48:09;59136.06;;;-140.20;100.00
5126;BME280;63008;53.112;8.896;2023-11-19T00:50:10;59161.16;;;-140.20;100.00
5126;BME280;63008;53.112;8.896;2023-11-19T00:52:11;59156.97;;;-140.20;100.00
5126;BME280;63008;53.112;8.896;2023-11-19T00:54:12;59184.16;;;-140.20;100.00
5126;BME280;63008;53.112;8.896;2023-11-19T00:56:13;59138.16;;;-140.20;100.00
5126;BME280;63008;53.112;8.896;2023-11-19T00:58:14;59173.72;;;-140.20;100.00
5126;BME280;63008;53.112;8.896;2023-11-19T01:00:15;59177.88;;;-140.20;100.00
5126;BME280;63008;53.112;8.896;2023-11-19T01:02:19;59121.44;;;-140.20;100.00
5126;BME280;63008;53.112;8.896;2023-11-19T01:04:20;59186.25;;;-140.20;100.00
5126;BME280;63008;53.112;8.896;2023-11-19T01:06:31;59131.91;;;-140.20;100.00
5126;BME280;63008;53.112;8.896;2023-11-19T01:08:32;59171.63;;;-140.20;100.00
5126;BME280;63008;53.112;8.896;2023-11-19T01:10:33;59119.34;;;-140.20;100.00
5126;BME280;63008;53.112;8.896;2023-11-19T01:12:34;59138.16;;;-140.20;100.00
5126;BME280;63008;53.112;8.896;2023-11-19T01:14:35;59169.53;;;-140.20;100.00
5126;BME280;63008;53.112;8.896;2023-11-19T01:16:36;59140.25;;;-140.20;100.00
5126;BME280;63008;53.112;8.896;2023-11-19T01:18:37;59156.97;;;-140.20;100.00
5126;BME280;63008;53.112;8.896;2023-11-19T01:20:39;59167.44;;;-140.20;100.00
5126;BME280;63008;53.112;8.896;2023-11-19T01:22:40;59148.63;;;-140.20;100.00
5126;BME280;63008;53.112;8.896;2023-11-19T01:24:41;59173.72;;;-140.20;100.00
5126;BME280;63008;53.112;8.896;2023-11-19T01:26:43;59156.97;;;-140.20;100.00
5126;BME280;63008;53.112;8.896;2023-11-19T01:28:47;59169.53;;;-140.20;100.00
5126;BME280;63008;53.112;8.896;2023-11-19T01:30:52;59190.44;;;-140.20;100.00
5126;BME280;63008;53.112;8.896;2023-11-19T01:32:53;59159.06;;;-140.20;100.00
5126;BME280;63008;53.112;8.896;2023-11-19T01:34:54;59161.16;;;-140.20;100.00
5126;BME280;63008;53.112;8.896;2023-11-19T01:36:55;59186.25;;;-140.20;100.00
5126;BME280;63008;53.112;8.896;2023-11-19T01:38:56;59136.06;;;-140.20;100.00
5126;BME280;63008;53.112;8.896;2023-11-19T01:40:57;59165.34;;;-140.20;100.00
5126;BME280;63008;53.112;8.896;2023-11-19T01:42:58;59184.16;;;-140.20;100.00
5126;BME280;63008;53.112;8.896;2023-11-19T01:45:00;59146.53;;;-140.20;100.00
5126;BME280;63008;53.112;8.896;2023-11-19T01:47:02;59138.16;;;-140.20;100.00
5126;BME280;63008;53.112;8.896;2023-11-19T01:49:04;59144.44;;;-140.20;100.00
5126;BME280;63008;53.112;8.896;2023-11-19T01:51:06;59179.97;;;-140.20;100.00
5126;BME280;63008;53.112;8.896;2023-11-19T01:53:08;59152.81;;;-140.20;100.00
5126;BME280;63008;53.112;8.896;2023-11-19T01:55:10;59161.16;;;-140.20;100.00
5126;BME280;63008;53.112;8.896;2023-11-19T01:57:12;59142.34;;;-140.20;100.00
5126;BME280;63008;53.112;8.896;2023-11-19T01:59:14;59161.16;;;-140.20;100.00
5126;BME280;63008;53.112;8.896;2023-11-19T02:01:15;59142.34;;;-140.20;100.00
5126;BME280;63008;53.112;8.896;2023-11-19T02:03:16;59150.72;;;-140.20;100.00
5126;BME280;63008;53.112;8.896;2023-11-19T02:05:17;59167.44;;;-140.20;100.00
5126;BME280;63008;53.112;8.896;2023-11-19T02:07:18;59152.81;;;-140.20;100.00
5126;BME280;63008;53.112;8.896;2023-11-19T02:09:19;59159.06;;;-140.20;100.00
5126;BME280;63008;53.112;8.896;2023-11-19T02:11:20;59175.81;;;-140.20;100.00
5126;BME280;63008;53.112;8.896;2023-11-19T02:13:22;59177.88;;;-140.20;100.00
5126;BME280;63008;53.112;8.896;2023-11-19T02:15:23;59108.91;;;-140.20;100.00
5126;BME280;63008;53.112;8.896;2023-11-19T02:17:28;59186.25;;;-140.20;100.00
5126;BME280;63008;53.112;8.896;2023-11-19T02:19:32;59177.88;;;-140.20;100.00
5126;BME280;63008;53.112;8.896;2023-11-19T02:21:33;59163.25;;;-140.20;100.00
5126;BME280;63008;53.112;8.896;2023-11-19T02:23:34;59138.16;;;-140.20;100.00
5126;BME280;63008;53.112;8.896;2023-11-19T02:25:35;59146.53;;;-140.20;100.00
5126;BME280;63008;53.112;8.896;2023-11-19T02:29:38;59102.63;;;-140.20;100.00
5126;BME280;63008;53.112;8.896;2023-11-19T02:31:39;59165.34;;;-140.20;100.00
5126;BME280;63008;53.112;8.896;2023-11-19T02:33:40;59136.06;;;-140.20;100.00
5126;BME280;63008;53.112;8.896;2023-11-19T02:35:41;59146.53;;;-140.20;100.00
5126;BME280;63008;53.112;8.896;2023-11-19T02:37:42;59146.53;;;-140.20;100.00
5126;BME280;63008;53.112;8.896;2023-11-19T02:39:43;59131.91;;;-140.20;100.00
5126;BME280;63008;53.112;8.896;2023-11-19T02:41:44;59140.25;;;-140.20;100.00
5126;BME280;63008;53.112;8.896;2023-11-19T02:43:45;59129.81;;;-140.20;100.00
5126;BME280;63008;53.112;8.896;2023-11-19T02:45:45;59154.88;;;-140.20;100.00
5126;BME280;63008;53.112;8.896;2023-11-19T02:47:46;59171.63;;;-140.20;100.00
5126;BME280;63008;53.112;8.896;2023-11-19T02:49:47;59136.06;;;-140.20;100.00
5126;BME280;63008;53.112;8.896;2023-11-19T02:51:48;59167.44;;;-140.20;100.00
5126;BME280;63008;53.112;8.896;2023-11-19T02:53:49;59115.16;;;-140.20;100.00
5126;BME280;63008;53.112;8.896;2023-11-19T02:55:50;59148.63;;;-140.20;100.00
5126;BME280;63008;53.112;8.896;2023-11-19T02:57:52;59115.16;;;-140.20;100.00
5126;BME280;63008;53.112;8.896;2023-11-19T02:59:53;59102.63;;;-140.20;100.00
5126;BME280;63008;53.112;8.896;2023-11-19T03:01:57;59156.97;;;-140.20;100.00
5126;BME280;63008;53.112;8.896;2023-11-19T03:03:58;59131.91;;;-140.20;100.00
5126;BME280;63008;53.112;8.896;2023-11-19T03:05:59;59175.81;;;-140.20;100.00
5126;BME280;63008;53.112;8.896;2023-11-19T03:08:01;59106.81;;;-140.20;100.00
5126;BME280;63008;53.112;8.896;2023-11-19T03:10:03;59140.25;;;-140.20;100.00
5126;BME280;63008;53.112;8.896;2023-11-19T03:12:06;59142.34;;;-140.20;100.00
5126;BME280;63008;53.112;8.896;2023-11-19T03:14:07;59092.16;;;-140.20;100.00
5126;BME280;63008;53.112;8.896;2023-11-19T03:16:08;59159.06;;;-140.20;100.00
5126;BME280;63008;53.112;8.896;2023-11-19T03:18:10;59138.16;;;-140.20;100.00
5126;BME280;63008;53.112;8.896;2023-11-19T03:20:12;59138.16;;;-140.20;100.00
5126;BME280;63008;53.112;8.896;2023-11-19T03:22:17;59138.16;;;-140.20;100.00
5126;BME280;63008;53.112;8.896;2023-11-19T03:24:18;59110.97;;;-140.20;100.00
5126;BME280;63008;53.112;8.896;2023-11-19T03:26:19;59123.53;;;-140.20;100.00
5126;BME280;63008;53.112;8.896;2023-11-19T03:28:20;59150.72;;;-140.20;100.00
5126;BME280;63008;53.112;8.896;2023-11-19T03:30:21;59154.88;;;-140.20;100.00
5126;BME280;63008;53.112;8.896;2023-11-19T03:32:22;59146.53;;;-140.20;100.00
5126;BME280;63008;53.112;8.896;2023-11-19T03:34:23;59169.53;;;-140.20;100.00
5126;BME280;63008;53.112;8.896;2023-11-19T03:36:24;59136.06;;;-140.20;100.00
5126;BME280;63008;53.112;8.896;2023-11-19T03:38:25;59159.06;;;-140.20;100.00
5126;BME280;63008;53.112;8.896;2023-11-19T03:40:26;59152.81;;;-140.20;100.00
5126;BME280;63008;53.112;8.896;2023-11-19T03:42:27;59150.72;;;-140.20;100.00
5126;BME280;63008;53.112;8.896;2023-11-19T03:44:28;59140.25;;;-140.20;100.00
5126;BME280;63008;53.112;8.896;2023-11-19T03:46:29;59127.72;;;-140.20;100.00
5126;BME280;63008;53.112;8.896;2023-11-19T03:48:31;59167.44;;;-140.20;100.00
5126;BME280;63008;53.112;8.896;2023-11-19T03:50:32;59123.53;;;-140.20;100.00
5126;BME280;63008;53.112;8.896;2023-11-19T03:52:33;59106.81;;;-140.20;100.00
5126;BME280;63008;53.112;8.896;2023-11-19T03:54:34;59150.72;;;-140.20;100.00
5126;BME280;63008;53.112;8.896;2023-11-19T03:56:36;59115.16;;;-140.20;100.00
5126;BME280;63008;53.112;8.896;2023-11-19T03:58:37;59161.16;;;-140.20;100.00
5126;BME280;63008;53.112;8.896;2023-11-19T04:00:39;59123.53;;;-140.20;100.00
5126;BME280;63008;53.112;8.896;2023-11-19T04:02:40;59106.81;;;-140.20;100.00
5126;BME280;63008;53.112;8.896;2023-11-19T04:04:42;59117.25;;;-140.20;100.00
5126;BME280;63008;53.112;8.896;2023-11-19T04:06:43;59131.91;;;-140.20;100.00
5126;BME280;63008;53.112;8.896;2023-11-19T04:08:44;59090.06;;;-140.20;100.00
5126;BME280;63008;53.112;8.896;2023-11-19T04:10:45;59121.44;;;-140.20;100.00
5126;BME280;63008;53.112;8.896;2023-11-19T04:12:46;59131.91;;;-140.20;100.00
5126;BME280;63008;53.112;8.896;2023-11-19T04:14:47;59106.81;;;-140.20;100.00
5126;BME280;63008;53.112;8.896;2023-11-19T04:16:48;59136.06;;;-140.20;100.00
5126;BME280;63008;53.112;8.896;2023-11-19T04:18:49;59156.97;;;-140.20;100.00
5126;BME280;63008;53.112;8.896;2023-11-19T04:20:50;59129.81;;;-140.20;100.00
5126;BME280;63008;53.112;8.896;2023-11-19T04:22:51;59098.44;;;-140.20;100.00
5126;BME280;63008;53.112;8.896;2023-11-19T04:24:52;59136.06;;;-140.20;100.00
5126;BME280;63008;53.112;8.896;2023-11-19T04:26:53;59167.44;;;-140.20;100.00
5126;BME280;63008;53.112;8.896;2023-11-19T04:28:54;59115.16;;;-140.20;100.00
5126;BME280;63008;53.112;8.896;2023-11-19T04:30:55;59119.34;;;-140.20;100.00
5126;BME280;63008;53.112;8.896;2023-11-19T04:32:57;59140.25;;;-140.20;100.00
5126;BME280;63008;53.112;8.896;2023-11-19T04:34:57;59123.53;;;-140.20;100.00
5126;BME280;63008;53.112;8.896;2023-11-19T04:36:58;59148.63;;;-140.20;100.00
5126;BME280;63008;53.112;8.896;2023-11-19T04:39:03;59133.97;;;-140.20;100.00
5126;BME280;63008;53.112;8.896;2023-11-19T04:41:13;59140.25;;;-140.20;100.00
5126;BME280;63008;53.112;8.896;2023-11-19T04:43:15;59142.34;;;-140.20;100.00
5126;BME280;63008;53.112;8.896;2023-11-19T04:45:16;59144.44;;;-140.20;100.00
5126;BME280;63008;53.112;8.896;2023-11-19T04:47:17;59123.53;;;-140.20;100.00
5126;BME280;63008;53.112;8.896;2023-11-19T04:49:18;59144.44;;;-140.20;100.00
5126;BME280;63008;53.112;8.896;2023-11-19T04:51:19;59106.81;;;-140.20;100.00
5126;BME280;63008;53.112;8.896;2023-11-19T04:53:20;59144.44;;;-140.20;100.00
5126;BME280;63008;53.112;8.896;2023-11-19T04:55:21;59140.25;;;-140.20;100.00
5126;BME280;63008;53.112;8.896;2023-11-19T04:57:22;59125.63;;;-140.20;100.00
5126;BME280;63008;53.112;8.896;2023-11-19T04:59:23;59177.88;;;-140.20;100.00
5126;BME280;63008;53.112;8.896;2023-11-19T05:01:24;59115.16;;;-140.20;100.00
5126;BME280;63008;53.112;8.896;2023-11-19T05:03:25;59121.44;;;-140.20;100.00
5126;BME280;63008;53.112;8.896;2023-11-19T05:05:26;59146.53;;;-140.20;100.00
5126;BME280;63008;53.112;8.896;2023-11-19T05:07:27;59142.34;;;-140.20;100.00
5126;BME280;63008;53.112;8.896;2023-11-19T05:09:29;59104.72;;;-140.20;100.00
5126;BME280;63008;53.112;8.896;2023-11-19T05:11:31;59127.72;;;-140.20;100.00
5126;BME280;63008;53.112;8.896;2023-11-19T05:13:32;59133.97;;;-140.20;100.00
5126;BME280;63008;53.112;8.896;2023-11-19T05:15:33;59163.25;;;-140.20;100.00
5126;BME280;63008;53.112;8.896;2023-11-19T05:17:34;59125.63;;;-140.20;100.00
5126;BME280;63008;53.112;8.896;2023-11-19T05:19:35;59110.97;;;-140.20;100.00
5126;BME280;63008;53.112;8.896;2023-11-19T05:21:36;59113.06;;;-140.20;100.00
5126;BME280;63008;53.112;8.896;2023-11-19T05:23:37;59171.63;;;-140.20;100.00
5126;BME280;63008;53.112;8.896;2023-11-19T05:25:38;59121.44;;;-140.20;100.00
5126;BME280;63008;53.112;8.896;2023-11-19T05:27:39;59092.16;;;-140.20;100.00
5126;BME280;63008;53.112;8.896;2023-11-19T05:29:40;59125.63;;;-140.20;100.00
5126;BME280;63008;53.112;8.896;2023-11-19T05:31:42;59140.25;;;-140.20;100.00
5126;BME280;63008;53.112;8.896;2023-11-19T05:33:43;59163.25;;;-140.20;100.00
5126;BME280;63008;53.112;8.896;2023-11-19T05:35:45;59182.06;;;-140.20;100.00
5126;BME280;63008;53.112;8.896;2023-11-19T05:37:46;59144.44;;;-140.20;100.00
5126;BME280;63008;53.112;8.896;2023-11-19T05:39:47;59136.06;;;-140.20;100.00
5126;BME280;63008;53.112;8.896;2023-11-19T05:41:48;59152.81;;;-140.20;100.00
5126;BME280;63008;53.112;8.896;2023-11-19T05:43:49;59094.25;;;-140.20;100.00
5126;BME280;63008;53.112;8.896;2023-11-19T05:45:50;59138.16;;;-140.20;100.00
5126;BME280;63008;53.112;8.896;2023-11-19T05:47:50;59142.34;;;-140.20;100.00
5126;BME280;63008;53.112;8.896;2023-11-19T05:49:53;59131.91;;;-140.20;100.00
5126;BME280;63008;53.112;8.896;2023-11-19T05:51:54;59138.16;;;-140.20;100.00
5126;BME280;63008;53.112;8.896;2023-11-19T05:53:56;59123.53;;;-140.20;100.00
5126;BME280;63008;53.112;8.896;2023-11-19T05:55:58;59144.44;;;-140.20;100.00
5126;BME280;63008;53.112;8.896;2023-11-19T05:57:59;59127.72;;;-140.20;100.00
5126;BME280;63008;53.112;8.896;2023-11-19T06:00:00;59133.97;;;-140.20;100.00
5126;BME280;63008;53.112;8.896;2023-11-19T06:02:02;59123.53;;;-140.20;100.00
5126;BME280;63008;53.112;8.896;2023-11-19T06:04:03;59113.06;;;-140.20;100.00
5126;BME280;63008;53.112;8.896;2023-11-19T06:06:06;59081.72;;;-140.20;100.00
5126;BME280;63008;53.112;8.896;2023-11-19T06:08:07;59161.16;;;-140.20;100.00
5126;BME280;63008;53.112;8.896;2023-11-19T06:10:08;59110.97;;;-140.20;100.00
5126;BME280;63008;53.112;8.896;2023-11-19T06:12:10;59110.97;;;-140.20;100.00
5126;BME280;63008;53.112;8.896;2023-11-19T06:14:11;59104.72;;;-140.20;100.00
5126;BME280;63008;53.112;8.896;2023-11-19T06:16:12;59133.97;;;-140.20;100.00
5126;BME280;63008;53.112;8.896;2023-11-19T06:18:13;59129.81;;;-140.20;100.00
5126;BME280;63008;53.112;8.896;2023-11-19T06:20:15;59140.25;;;-140.20;100.00
5126;BME280;63008;53.112;8.896;2023-11-19T06:22:18;59163.25;;;-140.20;100.00
5126;BME280;63008;53.112;8.896;2023-11-19T06:24:19;59136.06;;;-140.20;100.00
5126;BME280;63008;53.112;8.896;2023-11-19T06:26:20;59152.81;;;-140.20;100.00
5126;BME280;63008;53.112;8.896;2023-11-19T06:28:22;59127.72;;;-140.20;100.00
5126;BME280;63008;53.112;8.896;2023-11-19T06:30:24;59144.44;;;-140.20;100.00
5126;BME280;63008;53.112;8.896;2023-11-19T06:32:25;59106.81;;;-140.20;100.00
5126;BME280;63008;53.112;8.896;2023-11-19T06:34:26;59119.34;;;-140.20;100.00
5126;BME280;63008;53.112;8.896;2023-11-19T06:36:27;59142.34;;;-140.20;100.00
5126;BME280;63008;53.112;8.896;2023-11-19T06:38:28;59117.25;;;-140.20;100.00
5126;BME280;63008;53.112;8.896;2023-11-19T06:40:29;59119.34;;;-140.20;100.00
5126;BME280;63008;53.112;8.896;2023-11-19T06:42:30;59125.63;;;-140.20;100.00
5126;BME280;63008;53.112;8.896;2023-11-19T06:44:31;59129.81;;;-140.20;100.00
5126;BME280;63008;53.112;8.896;2023-11-19T06:46:32;59144.44;;;-140.20;100.00
5126;BME280;63008;53.112;8.896;2023-11-19T06:48:33;59154.88;;;-140.20;100.00
5126;BME280;63008;53.112;8.896;2023-11-19T06:50:34;59131.91;;;-140.20;100.00
5126;BME280;63008;53.112;8.896;2023-11-19T06:52:35;59138.16;;;-140.20;100.00
5126;BME280;63008;53.112;8.896;2023-11-19T06:54:39;59125.63;;;-140.20;100.00
5126;BME280;63008;53.112;8.896;2023-11-19T06:56:40;59110.97;;;-140.20;100.00
5126;BME280;63008;53.112;8.896;2023-11-19T06:58:42;59115.16;;;-140.20;100.00
5126;BME280;63008;53.112;8.896;2023-11-19T07:00:43;59159.06;;;-140.20;100.00
5126;BME280;63008;53.112;8.896;2023-11-19T07:02:44;59083.81;;;-140.20;100.00
5126;BME280;63008;53.112;8.896;2023-11-19T07:04:45;59119.34;;;-140.20;100.00
5126;BME280;63008;53.112;8.896;2023-11-19T07:06:46;59142.34;;;-140.20;100.00
5126;BME280;63008;53.112;8.896;2023-11-19T07:08:49;59138.16;;;-140.20;100.00
5126;BME280;63008;53.112;8.896;2023-11-19T07:10:50;59159.06;;;-140.20;100.00
5126;BME280;63008;53.112;8.896;2023-11-19T07:12:51;59123.53;;;-140.20;100.00
5126;BME280;63008;53.112;8.896;2023-11-19T07:14:52;59161.16;;;-140.20;100.00
5126;BME280;63008;53.112;8.896;2023-11-19T07:16:53;59129.81;;;-140.20;100.00
5126;BME280;63008;53.112;8.896;2023-11-19T07:18:54;59131.91;;;-140.20;100.00
5126;BME280;63008;53.112;8.896;2023-11-19T07:20:55;59136.06;;;-140.20;100.00
5126;BME280;63008;53.112;8.896;2023-11-19T07:22:56;59138.16;;;-140.20;100.00
5126;BME280;63008;53.112;8.896;2023-11-19T07:24:57;59136.06;;;-140.20;100.00
5126;BME280;63008;53.112;8.896;2023-11-19T07:26:59;59123.53;;;-140.20;100.00
5126;BME280;63008;53.112;8.896;2023-11-19T07:29:00;59110.97;;;-140.20;100.00
5126;BME280;63008;53.112;8.896;2023-11-19T07:31:03;59127.72;;;-140.20;100.00
5126;BME280;63008;53.112;8.896;2023-11-19T07:33:04;59117.25;;;-140.20;100.00
5126;BME280;63008;53.112;8.896;2023-11-19T07:35:05;59121.44;;;-140.20;100.00
5126;BME280;63008;53.112;8.896;2023-11-19T07:37:07;59119.34;;;-140.20;100.00
5126;BME280;63008;53.112;8.896;2023-11-19T07:39:08;59142.34;;;-140.20;100.00
5126;BME280;63008;53.112;8.896;2023-11-19T07:41:09;59106.81;;;-140.20;100.00
5126;BME280;63008;53.112;8.896;2023-11-19T07:43:13;59148.63;;;-140.20;100.00
5126;BME280;63008;53.112;8.896;2023-11-19T07:45:14;59127.72;;;-140.20;100.00
5126;BME280;63008;53.112;8.896;2023-11-19T07:47:15;59136.06;;;-140.20;100.00
5126;BME280;63008;53.112;8.896;2023-11-19T07:49:16;59136.06;;;-140.20;100.00
5126;BME280;63008;53.112;8.896;2023-11-19T07:51:17;59156.97;;;-140.20;100.00
5126;BME280;63008;53.112;8.896;2023-11-19T07:53:19;59140.25;;;-140.20;100.00
5126;BME280;63008;53.112;8.896;2023-11-19T07:55:20;59140.25;;;-140.20;100.00
5126;BME280;63008;53.112;8.896;2023-11-19T07:57:22;59104.72;;;-140.20;100.00
5126;BME280;63008;53.112;8.896;2023-11-19T07:59:24;59131.91;;;-140.20;100.00
5126;BME280;63008;53.112;8.896;2023-11-19T08:01:25;59123.53;;;-140.20;100.00
5126;BME280;63008;53.112;8.896;2023-11-19T08:03:26;59182.06;;;-140.20;100.00
5126;BME280;63008;53.112;8.896;2023-11-19T08:05:27;59123.53;;;-140.20;100.00
5126;BME280;63008;53.112;8.896;2023-11-19T08:07:28;59140.25;;;-140.20;100.00
5126;BME280;63008;53.112;8.896;2023-11-19T08:09:29;59144.44;;;-140.20;100.00
5126;BME280;63008;53.112;8.896;2023-11-19T08:11:30;59144.44;;;-140.20;100.00
5126;BME280;63008;53.112;8.896;2023-11-19T08:13:31;59140.25;;;-140.20;100.00
5126;BME280;63008;53.112;8.896;2023-11-19T08:15:32;59156.97;;;-140.20;100.00
5126;BME280;63008;53.112;8.896;2023-11-19T08:17:33;59163.25;;;-140.20;100.00
5126;BME280;63008;53.112;8.896;2023-11-19T08:19:34;59133.97;;;-140.20;100.00
5126;BME280;63008;53.112;8.896;2023-11-19T08:21:35;59131.91;;;-140.20;100.00
5126;BME280;63008;53.112;8.896;2023-11-19T08:23:36;59131.91;;;-140.20;100.00
5126;BME280;63008;53.112;8.896;2023-11-19T08:25:38;59123.53;;;-140.20;100.00
5126;BME280;63008;53.112;8.896;2023-11-19T08:27:39;59119.34;;;-140.20;100.00
5126;BME280;63008;53.112;8.896;2023-11-19T08:29:40;59117.25;;;-140.20;100.00
5126;BME280;63008;53.112;8.896;2023-11-19T08:31:42;59113.06;;;-140.20;100.00
5126;BME280;63008;53.112;8.896;2023-11-19T08:33:43;59123.53;;;-140.20;100.00
5126;BME280;63008;53.112;8.896;2023-11-19T08:35:44;59125.63;;;-140.20;100.00
5126;BME280;63008;53.112;8.896;2023-11-19T08:37:45;59152.81;;;-140.20;100.00
5126;BME280;63008;53.112;8.896;2023-11-19T08:39:47;59136.06;;;-140.20;100.00
5126;BME280;63008;53.112;8.896;2023-11-19T08:41:48;59148.63;;;-140.20;100.00
5126;BME280;63008;53.112;8.896;2023-11-19T08:43:49;59144.44;;;-140.20;100.00
5126;BME280;63008;53.112;8.896;2023-11-19T08:45:51;59163.25;;;-140.20;100.00
5126;BME280;63008;53.112;8.896;2023-11-19T08:47:52;59131.91;;;-140.20;99.81
5126;BME280;63008;53.112;8.896;2023-11-19T08:49:53;59154.88;;;-140.20;99.33
5126;BME280;63008;53.112;8.896;2023-11-19T08:51:54;59146.53;;;-140.20;98.58
5126;BME280;63008;53.112;8.896;2023-11-19T08:53:55;59113.06;;;-140.20;98.39
5126;BME280;63008;53.112;8.896;2023-11-19T08:55:56;59159.06;;;-140.20;97.76
5126;BME280;63008;53.112;8.896;2023-11-19T08:57:57;59129.81;;;-140.20;97.24
5126;BME280;63008;53.112;8.896;2023-11-19T08:59:59;59159.06;;;-140.20;97.73
5126;BME280;63008;53.112;8.896;2023-11-19T09:02:00;59140.25;;;-140.20;97.09
5126;BME280;63008;53.112;8.896;2023-11-19T09:04:01;59102.63;;;-140.20;95.83
5126;BME280;63008;53.112;8.896;2023-11-19T09:06:02;59081.72;;;-140.20;95.77
5126;BME280;63008;53.112;8.896;2023-11-19T09:08:04;59163.25;;;-140.20;95.54
5126;BME280;63008;53.112;8.896;2023-11-19T09:10:05;59108.91;;;-140.20;96.57
5126;BME280;63008;53.112;8.896;2023-11-19T09:12:06;59108.91;;;-140.20;95.24
5126;BME280;63008;53.112;8.896;2023-11-19T09:14:08;59156.97;;;-140.20;94.61
5126;BME280;63008;53.112;8.896;2023-11-19T09:16:12;59127.72;;;-140.20;95.01
5126;BME280;63008;53.112;8.896;2023-11-19T09:18:13;59127.72;;;-140.20;95.12
5126;BME280;63008;53.112;8.896;2023-11-19T09:20:14;59140.25;;;-140.20;94.65
5126;BME280;63008;53.112;8.896;2023-11-19T09:22:16;59138.16;;;-140.20;94.01
5126;BME280;63008;53.112;8.896;2023-11-19T09:24:17;59085.91;;;-140.20;92.83
5126;BME280;63008;53.112;8.896;2023-11-19T09:26:18;59173.72;;;-140.20;93.72
5126;BME280;63008;53.112;8.896;2023-11-19T09:28:19;59117.25;;;-140.20;93.20
5126;BME280;63008;53.112;8.896;2023-11-19T09:30:20;59077.53;;;-140.20;93.30
5126;BME280;63008;53.112;8.896;2023-11-19T09:32:21;59140.25;;;-140.20;92.64
5126;BME280;63008;53.112;8.896;2023-11-19T09:34:22;59085.91;;;-140.20;92.77
5126;BME280;63008;53.112;8.896;2023-11-19T09:36:23;59104.72;;;-140.20;92.56
5126;BME280;63008;53.112;8.896;2023-11-19T09:38:24;59090.06;;;-140.20;92.04
5126;BME280;63008;53.112;8.896;2023-11-19T09:40:25;59136.06;;;-140.20;91.69
5126;BME280;63008;53.112;8.896;2023-11-19T09:42:26;59131.91;;;-140.20;91.33
5126;BME280;63008;53.112;8.896;2023-11-19T09:44:27;59140.25;;;-140.20;91.46
5126;BME280;63008;53.112;8.896;2023-11-19T09:46:29;59119.34;;;-140.20;91.59
5126;BME280;63008;53.112;8.896;2023-11-19T09:48:32;59119.34;;;-140.20;92.22
5126;BME280;63008;53.112;8.896;2023-11-19T09:50:33;59104.72;;;-140.20;93.08
5126;BME280;63008;53.112;8.896;2023-11-19T09:52:34;59113.06;;;-140.20;92.79
5126;BME280;63008;53.112;8.896;2023-11-19T09:54:35;59161.16;;;-140.20;93.59
5126;BME280;63008;53.112;8.896;2023-11-19T09:56:37;59090.06;;;-140.20;93.34
5126;BME280;63008;53.112;8.896;2023-11-19T09:58:39;59117.25;;;-140.20;93.08
5126;BME280;63008;53.112;8.896;2023-11-19T10:00:41;59123.53;;;-140.20;93.62
5126;BME280;63008;53.112;8.896;2023-11-19T10:02:43;59106.81;;;-140.20;94.23
5126;BME280;63008;53.112;8.896;2023-11-19T10:04:48;59146.53;;;-140.20;94.90
5126;BME280;63008;53.112;8.896;2023-11-19T10:06:51;59133.97;;;-140.20;96.18
5126;BME280;63008;53.112;8.896;2023-11-19T10:08:52;59140.25;;;-140.20;97.53
5126;BME280;63008;53.112;8.896;2023-11-19T10:10:53;59129.81;;;-140.20;98.39
5126;BME280;63008;53.112;8.896;2023-11-19T10:12:55;59117.25;;;-140.20;99.04
5126;BME280;63008;53.112;8.896;2023-11-19T10:14:59;59098.44;;;-140.20;99.00
5126;BME280;63008;53.112;8.896;2023-11-19T10:17:01;59156.97;;;-140.20;98.85
5126;BME280;63008;53.112;8.896;2023-11-19T10:19:04;59140.25;;;-140.20;99.10
5126;BME280;63008;53.112;8.896;2023-11-19T10:21:05;59129.81;;;-140.20;99.66
5126;BME280;63008;53.112;8.896;2023-11-19T10:23:07;59144.44;;;-140.20;99.19
5126;BME280;63008;53.112;8.896;2023-11-19T10:27:25;59127.72;;;-140.20;99.48
5126;BME280;63008;53.112;8.896;2023-11-19T10:29:26;59123.53;;;-140.20;100.00
5126;BME280;63008;53.112;8.896;2023-11-19T10:31:27;59136.06;;;-140.20;100.00